sensor_id;sensor_type;location;lat;lon;timestamp;P1;durP1;ratioP1;P2;durP2;ratioP2
42846;SDS011;28495;49.916;14.536;2023-06-04T00:02:32;2.00;;;1.23;;
42846;SDS011;28495;49.916;14.536;2023-06-04T00:07:53;1.48;;;1.30;;
42846;SDS011;28495;49.916;14.536;2023-06-04T00:13:14;2.05;;;1.30;;
42846;SDS011;28495;49.916;14.536;2023-06-04T00:18:35;2.30;;;1.17;;
42846;SDS011;28495;49.916;14.536;2023-06-04T00:23:56;2.80;;;1.38;;
42846;SDS011;28495;49.916;14.536;2023-06-04T00:29:17;1.60;;;1.25;;
42846;SDS011;28495;49.916;14.536;2023-06-04T00:34:37;3.67;;;1.30;;
42846;SDS011;28495;49.916;14.536;2023-06-04T00:39:59;1.90;;;1.42;;
42846;SDS011;28495;49.916;14.536;2023-06-04T00:45:20;5.00;;;2.92;;
42846;SDS011;28495;49.916;14.536;2023-06-04T00:50:41;4.18;;;2.97;;
42846;SDS011;28495;49.916;14.536;2023-06-04T00:56:02;3.03;;;2.00;;
42846;SDS011;28495;49.916;14.536;2023-06-04T01:06:51;2.22;;;1.90;;
42846;SDS011;28495;49.916;14.536;2023-06-04T01:12:15;2.05;;;1.38;;
42846;SDS011;28495;49.916;14.536;2023-06-04T01:17:37;3.13;;;1.45;;
42846;SDS011;28495;49.916;14.536;2023-06-04T01:29:04;1.73;;;1.20;;
42846;SDS011;28495;49.916;14.536;2023-06-04T01:34:26;2.17;;;1.48;;
42846;SDS011;28495;49.916;14.536;2023-06-04T01:39:47;2.25;;;1.50;;
42846;SDS011;28495;49.916;14.536;2023-06-04T01:45:08;2.58;;;1.77;;
42846;SDS011;28495;49.916;14.536;2023-06-04T01:50:30;2.65;;;1.58;;
42846;SDS011;28495;49.916;14.536;2023-06-04T01:55:51;2.50;;;1.30;;
42846;SDS011;28495;49.916;14.536;2023-06-04T02:01:13;2.47;;;1.85;;
42846;SDS011;28495;49.916;14.536;2023-06-04T02:06:34;3.03;;;1.73;;
42846;SDS011;28495;49.916;14.536;2023-06-04T02:11:57;1.73;;;1.42;;
42846;SDS011;28495;49.916;14.536;2023-06-04T02:17:18;3.40;;;1.30;;
42846;SDS011;28495;49.916;14.536;2023-06-04T02:22:39;1.95;;;1.30;;
42846;SDS011;28495;49.916;14.536;2023-06-04T02:27:59;3.10;;;1.45;;
42846;SDS011;28495;49.916;14.536;2023-06-04T02:33:21;2.78;;;1.38;;
42846;SDS011;28495;49.916;14.536;2023-06-04T02:38:42;2.05;;;1.48;;
42846;SDS011;28495;49.916;14.536;2023-06-04T02:44:03;2.35;;;1.15;;
42846;SDS011;28495;49.916;14.536;2023-06-04T02:49:24;1.98;;;1.33;;
42846;SDS011;28495;49.916;14.536;2023-06-04T02:54:45;2.17;;;1.30;;
42846;SDS011;28495;49.916;14.536;2023-06-04T03:00:06;2.55;;;1.33;;
42846;SDS011;28495;49.916;14.536;2023-06-04T03:05:32;1.30;;;1.05;;
42846;SDS011;28495;49.916;14.536;2023-06-04T03:10:53;1.77;;;1.20;;
42846;SDS011;28495;49.916;14.536;2023-06-04T03:16:14;2.25;;;1.33;;
42846;SDS011;28495;49.916;14.536;2023-06-04T03:21:35;3.20;;;1.40;;
42846;SDS011;28495;49.916;14.536;2023-06-04T03:26:59;3.38;;;1.38;;
42846;SDS011;28495;49.916;14.536;2023-06-04T03:32:21;2.58;;;1.52;;
42846;SDS011;28495;49.916;14.536;2023-06-04T03:37:42;1.67;;;1.17;;
42846;SDS011;28495;49.916;14.536;2023-06-04T03:43:04;3.17;;;1.30;;
42846;SDS011;28495;49.916;14.536;2023-06-04T03:48:25;1.70;;;1.00;;
42846;SDS011;28495;49.916;14.536;2023-06-04T03:53:46;1.92;;;1.35;;
42846;SDS011;28495;49.916;14.536;2023-06-04T03:59:07;3.40;;;1.38;;
42846;SDS011;28495;49.916;14.536;2023-06-04T04:04:28;4.45;;;1.40;;
42846;SDS011;28495;49.916;14.536;2023-06-04T04:09:51;6.25;;;1.83;;
42846;SDS011;28495;49.916;14.536;2023-06-04T04:15:13;2.53;;;1.27;;
42846;SDS011;28495;49.916;14.536;2023-06-04T04:20:36;1.95;;;1.20;;
42846;SDS011;28495;49.916;14.536;2023-06-04T04:26:00;6.15;;;1.52;;
42846;SDS011;28495;49.916;14.536;2023-06-04T04:31:24;1.40;;;1.25;;
42846;SDS011;28495;49.916;14.536;2023-06-04T04:36:46;3.50;;;1.20;;
42846;SDS011;28495;49.916;14.536;2023-06-04T04:42:14;3.00;;;1.48;;
42846;SDS011;28495;49.916;14.536;2023-06-04T04:47:35;3.55;;;1.85;;
42846;SDS011;28495;49.916;14.536;2023-06-04T04:52:56;3.50;;;1.83;;
42846;SDS011;28495;49.916;14.536;2023-06-04T04:58:18;3.13;;;1.50;;
42846;SDS011;28495;49.916;14.536;2023-06-04T05:03:40;4.30;;;1.48;;
42846;SDS011;28495;49.916;14.536;2023-06-04T05:09:03;2.90;;;1.40;;
42846;SDS011;28495;49.916;14.536;2023-06-04T05:14:24;2.53;;;1.58;;
42846;SDS011;28495;49.916;14.536;2023-06-04T05:19:46;3.20;;;1.40;;
42846;SDS011;28495;49.916;14.536;2023-06-04T05:25:08;1.50;;;1.27;;
42846;SDS011;28495;49.916;14.536;2023-06-04T05:30:30;2.67;;;1.40;;
42846;SDS011;28495;49.916;14.536;2023-06-04T05:35:52;2.05;;;1.30;;
42846;SDS011;28495;49.916;14.536;2023-06-04T05:41:16;1.42;;;1.20;;
42846;SDS011;28495;49.916;14.536;2023-06-04T05:46:37;2.70;;;1.45;;
42846;SDS011;28495;49.916;14.536;2023-06-04T05:51:59;3.90;;;1.75;;
42846;SDS011;28495;49.916;14.536;2023-06-04T05:57:21;2.78;;;1.45;;
42846;SDS011;28495;49.916;14.536;2023-06-04T06:02:42;2.33;;;1.73;;
42846;SDS011;28495;49.916;14.536;2023-06-04T06:08:17;3.08;;;1.60;;
42846;SDS011;28495;49.916;14.536;2023-06-04T06:13:39;2.38;;;1.38;;
42846;SDS011;28495;49.916;14.536;2023-06-04T06:19:02;4.78;;;1.52;;
42846;SDS011;28495;49.916;14.536;2023-06-04T06:24:23;3.00;;;1.80;;
42846;SDS011;28495;49.916;14.536;2023-06-04T06:29:44;3.17;;;1.58;;
42846;SDS011;28495;49.916;14.536;2023-06-04T06:35:05;2.08;;;1.60;;
42846;SDS011;28495;49.916;14.536;2023-06-04T06:40:28;1.75;;;1.17;;
42846;SDS011;28495;49.916;14.536;2023-06-04T06:45:50;2.58;;;1.23;;
42846;SDS011;28495;49.916;14.536;2023-06-04T06:51:12;1.80;;;1.33;;
42846;SDS011;28495;49.916;14.536;2023-06-04T06:56:33;5.03;;;1.52;;
42846;SDS011;28495;49.916;14.536;2023-06-04T07:01:53;6.72;;;1.52;;
42846;SDS011;28495;49.916;14.536;2023-06-04T07:07:14;1.65;;;1.23;;
42846;SDS011;28495;49.916;14.536;2023-06-04T07:12:38;2.10;;;1.30;;
42846;SDS011;28495;49.916;14.536;2023-06-04T07:18:03;3.10;;;1.23;;
42846;SDS011;28495;49.916;14.536;2023-06-04T07:23:24;1.67;;;1.10;;
42846;SDS011;28495;49.916;14.536;2023-06-04T07:28:45;1.95;;;1.10;;
42846;SDS011;28495;49.916;14.536;2023-06-04T07:34:06;1.10;;;1.00;;
42846;SDS011;28495;49.916;14.536;2023-06-04T07:39:27;4.20;;;1.20;;
42846;SDS011;28495;49.916;14.536;2023-06-04T07:44:48;2.15;;;1.48;;
42846;SDS011;28495;49.916;14.536;2023-06-04T07:50:09;3.72;;;1.27;;
42846;SDS011;28495;49.916;14.536;2023-06-04T07:55:30;4.05;;;1.45;;
42846;SDS011;28495;49.916;14.536;2023-06-04T08:00:52;2.33;;;1.40;;
42846;SDS011;28495;49.916;14.536;2023-06-04T08:06:13;1.65;;;1.30;;
42846;SDS011;28495;49.916;14.536;2023-06-04T08:11:38;5.38;;;1.70;;
42846;SDS011;28495;49.916;14.536;2023-06-04T08:17:01;1.40;;;1.25;;
42846;SDS011;28495;49.916;14.536;2023-06-04T08:22:22;1.80;;;1.30;;
42846;SDS011;28495;49.916;14.536;2023-06-04T08:27:43;3.20;;;1.40;;
42846;SDS011;28495;49.916;14.536;2023-06-04T08:33:04;1.52;;;1.00;;
42846;SDS011;28495;49.916;14.536;2023-06-04T08:38:25;1.23;;;1.13;;
42846;SDS011;28495;49.916;14.536;2023-06-04T08:43:46;3.60;;;1.10;;
42846;SDS011;28495;49.916;14.536;2023-06-04T08:49:10;1.95;;;0.95;;
42846;SDS011;28495;49.916;14.536;2023-06-04T08:54:33;1.25;;;1.00;;
42846;SDS011;28495;49.916;14.536;2023-06-04T08:59:54;3.30;;;1.30;;
42846;SDS011;28495;49.916;14.536;2023-06-04T09:05:21;4.20;;;1.10;;
42846;SDS011;28495;49.916;14.536;2023-06-04T09:10:43;2.33;;;1.13;;
42846;SDS011;28495;49.916;14.536;2023-06-04T09:16:09;5.45;;;1.02;;
42846;SDS011;28495;49.916;14.536;2023-06-04T09:21:30;2.35;;;0.80;;
42846;SDS011;28495;49.916;14.536;2023-06-04T09:26:51;1.92;;;0.85;;
42846;SDS011;28495;49.916;14.536;2023-06-04T09:32:12;1.17;;;0.70;;
42846;SDS011;28495;49.916;14.536;2023-06-04T09:37:34;2.33;;;1.38;;
42846;SDS011;28495;49.916;14.536;2023-06-04T09:42:55;1.25;;;0.63;;
42846;SDS011;28495;49.916;14.536;2023-06-04T09:48:20;1.60;;;1.10;;
42846;SDS011;28495;49.916;14.536;2023-06-04T09:53:52;3.33;;;1.10;;
42846;SDS011;28495;49.916;14.536;2023-06-04T09:59:17;2.38;;;0.73;;
42846;SDS011;28495;49.916;14.536;2023-06-04T10:04:41;1.95;;;0.98;;
42846;SDS011;28495;49.916;14.536;2023-06-04T10:10:03;1.95;;;0.60;;
42846;SDS011;28495;49.916;14.536;2023-06-04T10:15:24;1.35;;;0.82;;
42846;SDS011;28495;49.916;14.536;2023-06-04T10:20:45;1.45;;;0.80;;
42846;SDS011;28495;49.916;14.536;2023-06-04T10:26:06;1.05;;;0.80;;
42846;SDS011;28495;49.916;14.536;2023-06-04T10:31:28;1.55;;;0.93;;
42846;SDS011;28495;49.916;14.536;2023-06-04T10:36:50;1.88;;;0.90;;
42846;SDS011;28495;49.916;14.536;2023-06-04T10:42:11;3.22;;;0.70;;
42846;SDS011;28495;49.916;14.536;2023-06-04T10:47:33;1.55;;;1.00;;
42846;SDS011;28495;49.916;14.536;2023-06-04T10:52:57;1.25;;;0.82;;
42846;SDS011;28495;49.916;14.536;2023-06-04T10:58:19;2.38;;;1.02;;
42846;SDS011;28495;49.916;14.536;2023-06-04T11:03:41;4.65;;;1.40;;
42846;SDS011;28495;49.916;14.536;2023-06-04T11:09:04;1.98;;;1.00;;
42846;SDS011;28495;49.916;14.536;2023-06-04T11:14:26;1.20;;;0.90;;
42846;SDS011;28495;49.916;14.536;2023-06-04T11:19:47;0.77;;;0.77;;
42846;SDS011;28495;49.916;14.536;2023-06-04T11:25:09;1.77;;;0.90;;
42846;SDS011;28495;49.916;14.536;2023-06-04T11:30:30;1.63;;;0.80;;
42846;SDS011;28495;49.916;14.536;2023-06-04T11:35:51;1.67;;;0.90;;
42846;SDS011;28495;49.916;14.536;2023-06-04T11:41:12;1.13;;;0.82;;
42846;SDS011;28495;49.916;14.536;2023-06-04T11:46:32;5.60;;;0.90;;
42846;SDS011;28495;49.916;14.536;2023-06-04T11:51:54;1.30;;;0.80;;
42846;SDS011;28495;49.916;14.536;2023-06-04T11:57:15;1.33;;;0.85;;
42846;SDS011;28495;49.916;14.536;2023-06-04T12:02:36;1.77;;;0.93;;
42846;SDS011;28495;49.916;14.536;2023-06-04T12:08:04;1.10;;;0.93;;
42846;SDS011;28495;49.916;14.536;2023-06-04T12:13:36;2.10;;;0.98;;
42846;SDS011;28495;49.916;14.536;2023-06-04T12:19:07;2.42;;;0.80;;
42846;SDS011;28495;49.916;14.536;2023-06-04T12:24:34;1.33;;;1.23;;
42846;SDS011;28495;49.916;14.536;2023-06-04T12:30:00;0.70;;;0.70;;
42846;SDS011;28495;49.916;14.536;2023-06-04T12:35:23;0.88;;;0.77;;
42846;SDS011;28495;49.916;14.536;2023-06-04T12:40:44;2.08;;;0.80;;
42846;SDS011;28495;49.916;14.536;2023-06-04T12:46:05;1.98;;;1.00;;
42846;SDS011;28495;49.916;14.536;2023-06-04T12:51:26;1.42;;;0.80;;
42846;SDS011;28495;49.916;14.536;2023-06-04T12:56:47;22.25;;;2.28;;
42846;SDS011;28495;49.916;14.536;2023-06-04T13:02:09;1.30;;;0.80;;
42846;SDS011;28495;49.916;14.536;2023-06-04T13:07:30;3.22;;;0.90;;
42846;SDS011;28495;49.916;14.536;2023-06-04T13:12:50;2.92;;;0.98;;
42846;SDS011;28495;49.916;14.536;2023-06-04T13:18:11;1.42;;;0.88;;
42846;SDS011;28495;49.916;14.536;2023-06-04T13:23:32;1.48;;;0.70;;
42846;SDS011;28495;49.916;14.536;2023-06-04T13:29:09;2.53;;;0.80;;
42846;SDS011;28495;49.916;14.536;2023-06-04T13:34:31;1.17;;;0.98;;
42846;SDS011;28495;49.916;14.536;2023-06-04T13:39:52;1.95;;;0.90;;
42846;SDS011;28495;49.916;14.536;2023-06-04T13:45:13;1.58;;;0.80;;
42846;SDS011;28495;49.916;14.536;2023-06-04T13:50:34;2.20;;;0.80;;
42846;SDS011;28495;49.916;14.536;2023-06-04T13:55:55;2.80;;;0.80;;
42846;SDS011;28495;49.916;14.536;2023-06-04T14:01:19;1.27;;;0.80;;
42846;SDS011;28495;49.916;14.536;2023-06-04T14:06:40;0.93;;;0.68;;
42846;SDS011;28495;49.916;14.536;2023-06-04T14:12:02;0.77;;;0.70;;
42846;SDS011;28495;49.916;14.536;2023-06-04T14:17:24;1.05;;;0.88;;
42846;SDS011;28495;49.916;14.536;2023-06-04T14:22:45;1.55;;;0.32;;
42846;SDS011;28495;49.916;14.536;2023-06-04T14:28:05;0.63;;;0.60;;
42846;SDS011;28495;49.916;14.536;2023-06-04T14:33:26;4.05;;;1.17;;
42846;SDS011;28495;49.916;14.536;2023-06-04T14:38:47;1.00;;;0.90;;
42846;SDS011;28495;49.916;14.536;2023-06-04T14:44:08;1.20;;;0.60;;
42846;SDS011;28495;49.916;14.536;2023-06-04T14:49:29;4.32;;;1.08;;
42846;SDS011;28495;49.916;14.536;2023-06-04T14:54:50;1.33;;;0.75;;
42846;SDS011;28495;49.916;14.536;2023-06-04T15:00:15;2.20;;;1.00;;
42846;SDS011;28495;49.916;14.536;2023-06-04T15:05:36;1.60;;;0.80;;
42846;SDS011;28495;49.916;14.536;2023-06-04T15:10:57;1.48;;;0.80;;
42846;SDS011;28495;49.916;14.536;2023-06-04T15:16:18;1.25;;;0.93;;
42846;SDS011;28495;49.916;14.536;2023-06-04T15:21:38;1.58;;;0.90;;
42846;SDS011;28495;49.916;14.536;2023-06-04T15:26:59;2.35;;;0.77;;
42846;SDS011;28495;49.916;14.536;2023-06-04T15:32:20;1.92;;;0.90;;
42846;SDS011;28495;49.916;14.536;2023-06-04T15:37:41;4.20;;;1.00;;
42846;SDS011;28495;49.916;14.536;2023-06-04T15:43:02;2.35;;;1.00;;
42846;SDS011;28495;49.916;14.536;2023-06-04T15:48:23;1.00;;;0.80;;
42846;SDS011;28495;49.916;14.536;2023-06-04T15:53:46;1.02;;;0.70;;
42846;SDS011;28495;49.916;14.536;2023-06-04T15:59:07;2.67;;;0.93;;
42846;SDS011;28495;49.916;14.536;2023-06-04T16:04:28;2.35;;;0.90;;
42846;SDS011;28495;49.916;14.536;2023-06-04T16:09:49;1.17;;;0.98;;
42846;SDS011;28495;49.916;14.536;2023-06-04T16:15:10;1.63;;;0.80;;
42846;SDS011;28495;49.916;14.536;2023-06-04T16:20:31;1.02;;;0.90;;
42846;SDS011;28495;49.916;14.536;2023-06-04T16:25:52;1.17;;;1.08;;
42846;SDS011;28495;49.916;14.536;2023-06-04T16:31:13;1.98;;;1.05;;
42846;SDS011;28495;49.916;14.536;2023-06-04T16:36:34;3.03;;;1.08;;
42846;SDS011;28495;49.916;14.536;2023-06-04T16:41:57;1.30;;;0.90;;
42846;SDS011;28495;49.916;14.536;2023-06-04T16:47:22;1.88;;;1.02;;
42846;SDS011;28495;49.916;14.536;2023-06-04T16:52:44;0.88;;;0.88;;
42846;SDS011;28495;49.916;14.536;2023-06-04T16:58:52;1.80;;;0.77;;
42846;SDS011;28495;49.916;14.536;2023-06-04T17:04:14;4.00;;;0.90;;
42846;SDS011;28495;49.916;14.536;2023-06-04T17:09:35;1.27;;;1.02;;
42846;SDS011;28495;49.916;14.536;2023-06-04T17:14:56;2.92;;;1.45;;
42846;SDS011;28495;49.916;14.536;2023-06-04T17:20:17;2.53;;;0.98;;
42846;SDS011;28495;49.916;14.536;2023-06-04T17:25:38;1.65;;;0.90;;
42846;SDS011;28495;49.916;14.536;2023-06-04T17:31:00;1.88;;;0.70;;
42846;SDS011;28495;49.916;14.536;2023-06-04T17:36:21;1.75;;;0.88;;
42846;SDS011;28495;49.916;14.536;2023-06-04T17:41:42;1.13;;;1.02;;
42846;SDS011;28495;49.916;14.536;2023-06-04T17:47:03;3.42;;;1.88;;
42846;SDS011;28495;49.916;14.536;2023-06-04T17:52:26;6.72;;;1.02;;
42846;SDS011;28495;49.916;14.536;2023-06-04T17:57:47;5.25;;;1.20;;
42846;SDS011;28495;49.916;14.536;2023-06-04T18:03:09;6.38;;;1.08;;
42846;SDS011;28495;49.916;14.536;2023-06-04T18:08:32;4.43;;;1.45;;
42846;SDS011;28495;49.916;14.536;2023-06-04T18:13:53;6.55;;;1.70;;
42846;SDS011;28495;49.916;14.536;2023-06-04T18:19:13;2.70;;;1.10;;
42846;SDS011;28495;49.916;14.536;2023-06-04T18:24:37;2.00;;;1.20;;
42846;SDS011;28495;49.916;14.536;2023-06-04T18:29:58;6.75;;;1.23;;
42846;SDS011;28495;49.916;14.536;2023-06-04T18:35:19;5.20;;;1.30;;
42846;SDS011;28495;49.916;14.536;2023-06-04T18:40:40;14.57;;;1.42;;
42846;SDS011;28495;49.916;14.536;2023-06-04T18:46:01;4.30;;;1.20;;
42846;SDS011;28495;49.916;14.536;2023-06-04T18:51:22;1.48;;;1.10;;
42846;SDS011;28495;49.916;14.536;2023-06-04T18:56:44;2.38;;;1.00;;
42846;SDS011;28495;49.916;14.536;2023-06-04T19:02:05;0.95;;;0.85;;
42846;SDS011;28495;49.916;14.536;2023-06-04T19:07:25;3.33;;;1.23;;
42846;SDS011;28495;49.916;14.536;2023-06-04T19:12:46;1.95;;;1.17;;
42846;SDS011;28495;49.916;14.536;2023-06-04T19:18:07;6.07;;;1.13;;
42846;SDS011;28495;49.916;14.536;2023-06-04T19:23:28;2.58;;;1.10;;
42846;SDS011;28495;49.916;14.536;2023-06-04T19:28:48;3.83;;;1.13;;
42846;SDS011;28495;49.916;14.536;2023-06-04T19:34:09;3.17;;;1.40;;
42846;SDS011;28495;49.916;14.536;2023-06-04T19:39:31;1.92;;;1.10;;
42846;SDS011;28495;49.916;14.536;2023-06-04T19:44:51;2.60;;;0.90;;
42846;SDS011;28495;49.916;14.536;2023-06-04T19:50:12;1.42;;;1.00;;
42846;SDS011;28495;49.916;14.536;2023-06-04T19:55:34;2.35;;;1.10;;
42846;SDS011;28495;49.916;14.536;2023-06-04T20:00:55;1.33;;;0.70;;
42846;SDS011;28495;49.916;14.536;2023-06-04T20:06:16;1.92;;;0.90;;
42846;SDS011;28495;49.916;14.536;2023-06-04T20:11:37;2.55;;;1.17;;
42846;SDS011;28495;49.916;14.536;2023-06-04T20:16:58;1.88;;;0.90;;
42846;SDS011;28495;49.916;14.536;2023-06-04T20:22:19;1.60;;;1.00;;
42846;SDS011;28495;49.916;14.536;2023-06-04T20:27:40;3.35;;;1.10;;
42846;SDS011;28495;49.916;14.536;2023-06-04T20:33:03;3.03;;;1.20;;
42846;SDS011;28495;49.916;14.536;2023-06-04T20:38:24;0.88;;;0.85;;
42846;SDS011;28495;49.916;14.536;2023-06-04T20:43:46;1.10;;;1.00;;
42846;SDS011;28495;49.916;14.536;2023-06-04T20:49:08;1.90;;;0.93;;
42846;SDS011;28495;49.916;14.536;2023-06-04T20:54:29;4.90;;;1.20;;
42846;SDS011;28495;49.916;14.536;2023-06-04T20:59:49;1.17;;;0.95;;
42846;SDS011;28495;49.916;14.536;2023-06-04T21:05:11;2.35;;;1.42;;
42846;SDS011;28495;49.916;14.536;2023-06-04T21:10:32;3.35;;;1.60;;
42846;SDS011;28495;49.916;14.536;2023-06-04T21:15:53;1.83;;;1.23;;
42846;SDS011;28495;49.916;14.536;2023-06-04T21:21:14;1.42;;;0.98;;
42846;SDS011;28495;49.916;14.536;2023-06-04T21:26:35;1.88;;;1.30;;
42846;SDS011;28495;49.916;14.536;2023-06-04T21:31:56;2.50;;;1.33;;
42846;SDS011;28495;49.916;14.536;2023-06-04T21:37:16;2.00;;;1.17;;
42846;SDS011;28495;49.916;14.536;2023-06-04T21:42:37;2.38;;;1.42;;
42846;SDS011;28495;49.916;14.536;2023-06-04T21:47:59;4.32;;;1.65;;
42846;SDS011;28495;49.916;14.536;2023-06-04T21:53:21;4.82;;;1.45;;
42846;SDS011;28495;49.916;14.536;2023-06-04T21:58:42;2.55;;;1.50;;
42846;SDS011;28495;49.916;14.536;2023-06-04T22:04:03;6.53;;;1.50;;
42846;SDS011;28495;49.916;14.536;2023-06-04T22:09:24;2.90;;;1.52;;
42846;SDS011;28495;49.916;14.536;2023-06-04T22:14:45;2.85;;;1.10;;
42846;SDS011;28495;49.916;14.536;2023-06-04T22:20:06;1.83;;;1.10;;
42846;SDS011;28495;49.916;14.536;2023-06-04T22:25:27;2.38;;;1.50;;
42846;SDS011;28495;49.916;14.536;2023-06-04T22:30:48;4.10;;;1.98;;
42846;SDS011;28495;49.916;14.536;2023-06-04T22:36:09;2.10;;;1.48;;
42846;SDS011;28495;49.916;14.536;2023-06-04T22:41:29;1.92;;;1.42;;
42846;SDS011;28495;49.916;14.536;2023-06-04T22:46:50;2.15;;;1.83;;
42846;SDS011;28495;49.916;14.536;2023-06-04T22:52:11;3.00;;;1.70;;
42846;SDS011;28495;49.916;14.536;2023-06-04T22:57:32;2.80;;;1.83;;
42846;SDS011;28495;49.916;14.536;2023-06-04T23:02:52;2.55;;;1.30;;
42846;SDS011;28495;49.916;14.536;2023-06-04T23:08:14;2.40;;;1.52;;
42846;SDS011;28495;49.916;14.536;2023-06-04T23:13:34;3.53;;;1.65;;
42846;SDS011;28495;49.916;14.536;2023-06-04T23:18:56;3.60;;;1.42;;
42846;SDS011;28495;49.916;14.536;2023-06-04T23:24:17;2.38;;;1.30;;
42846;SDS011;28495;49.916;14.536;2023-06-04T23:29:38;6.10;;;1.52;;
42846;SDS011;28495;49.916;14.536;2023-06-04T23:34:58;4.88;;;1.45;;
42846;SDS011;28495;49.916;14.536;2023-06-04T23:40:19;2.13;;;1.40;;
42846;SDS011;28495;49.916;14.536;2023-06-04T23:45:40;3.72;;;1.38;;
42846;SDS011;28495;49.916;14.536;2023-06-04T23:51:01;4.10;;;1.58;;
42846;SDS011;28495;49.916;14.536;2023-06-04T23:56:22;2.35;;;1.35;;
